sensor_id;sensor_type;location;lat;lon;timestamp;pressure;altitude;pressure_sealevel;temperature
12918;BMP180;6526;54.312;13.092;2022-09-29T00:00:52;100169.00;;;13.30
12918;BMP180;6526;54.312;13.092;2022-09-29T00:03:19;100167.00;;;13.30
12918;BMP180;6526;54.312;13.092;2022-09-29T00:05:50;100159.00;;;13.20
12918;BMP180;6526;54.312;13.092;2022-09-29T00:08:17;100160.00;;;13.30
12918;BMP180;6526;54.312;13.092;2022-09-29T00:10:45;100159.00;;;13.30
12918;BMP180;6526;54.312;13.092;2022-09-29T00:13:12;100165.00;;;13.30
12918;BMP180;6526;54.312;13.092;2022-09-29T00:15:38;100165.00;;;13.30
12918;BMP180;6526;54.312;13.092;2022-09-29T00:18:04;100157.00;;;13.20
12918;BMP180;6526;54.312;13.092;2022-09-29T00:20:31;100157.00;;;13.20
12918;BMP180;6526;54.312;13.092;2022-09-29T00:22:58;100169.00;;;13.20
12918;BMP180;6526;54.312;13.092;2022-09-29T00:25:24;100164.00;;;13.20
12918;BMP180;6526;54.312;13.092;2022-09-29T00:27:50;100165.00;;;13.20
12918;BMP180;6526;54.312;13.092;2022-09-29T00:30:16;100167.00;;;13.20
12918;BMP180;6526;54.312;13.092;2022-09-29T00:32:42;100171.00;;;13.20
12918;BMP180;6526;54.312;13.092;2022-09-29T00:35:09;100164.00;;;13.10
12918;BMP180;6526;54.312;13.092;2022-09-29T00:37:35;100167.00;;;13.00
12918;BMP180;6526;54.312;13.092;2022-09-29T00:40:02;100167.00;;;13.00
12918;BMP180;6526;54.312;13.092;2022-09-29T00:42:29;100157.00;;;13.00
12918;BMP180;6526;54.312;13.092;2022-09-29T00:44:59;100153.00;;;13.00
12918;BMP180;6526;54.312;13.092;2022-09-29T00:47:28;100160.00;;;12.90
12918;BMP180;6526;54.312;13.092;2022-09-29T00:50:38;100161.00;;;12.90
12918;BMP180;6526;54.312;13.092;2022-09-29T00:53:06;100157.00;;;12.90
12918;BMP180;6526;54.312;13.092;2022-09-29T00:55:41;100154.00;;;12.80
12918;BMP180;6526;54.312;13.092;2022-09-29T00:58:27;100151.00;;;12.80
12918;BMP180;6526;54.312;13.092;2022-09-29T01:00:54;100151.00;;;12.70
12918;BMP180;6526;54.312;13.092;2022-09-29T01:03:22;100156.00;;;12.80
12918;BMP180;6526;54.312;13.092;2022-09-29T01:05:55;100149.00;;;12.70
12918;BMP180;6526;54.312;13.092;2022-09-29T01:08:59;100158.00;;;12.80
12918;BMP180;6526;54.312;13.092;2022-09-29T01:11:19;100160.00;;;12.70
12918;BMP180;6526;54.312;13.092;2022-09-29T01:13:46;100156.00;;;12.70
12918;BMP180;6526;54.312;13.092;2022-09-29T01:16:13;100159.00;;;12.60
12918;BMP180;6526;54.312;13.092;2022-09-29T01:18:39;100155.00;;;12.60
12918;BMP180;6526;54.312;13.092;2022-09-29T01:23:53;100168.00;;;12.60
12918;BMP180;6526;54.312;13.092;2022-09-29T01:29:35;100167.00;;;12.50
12918;BMP180;6526;54.312;13.092;2022-09-29T01:32:23;100163.00;;;12.50
12918;BMP180;6526;54.312;13.092;2022-09-29T01:34:59;100170.00;;;12.50
12918;BMP180;6526;54.312;13.092;2022-09-29T01:40:51;100167.00;;;12.40
12918;BMP180;6526;54.312;13.092;2022-09-29T01:43:34;100170.00;;;12.30
12918;BMP180;6526;54.312;13.092;2022-09-29T01:46:08;100176.00;;;12.30
12918;BMP180;6526;54.312;13.092;2022-09-29T01:48:39;100175.00;;;12.30
12918;BMP180;6526;54.312;13.092;2022-09-29T01:51:10;100174.00;;;12.30
12918;BMP180;6526;54.312;13.092;2022-09-29T01:53:51;100169.00;;;12.20
12918;BMP180;6526;54.312;13.092;2022-09-29T01:56:31;100171.00;;;12.20
12918;BMP180;6526;54.312;13.092;2022-09-29T01:59:22;100173.00;;;12.20
12918;BMP180;6526;54.312;13.092;2022-09-29T02:01:51;100185.00;;;12.20
12918;BMP180;6526;54.312;13.092;2022-09-29T02:04:26;100179.00;;;12.00
12918;BMP180;6526;54.312;13.092;2022-09-29T02:06:58;100182.00;;;12.00
12918;BMP180;6526;54.312;13.092;2022-09-29T02:09:32;100185.00;;;12.00
12918;BMP180;6526;54.312;13.092;2022-09-29T02:12:01;100183.00;;;11.90
12918;BMP180;6526;54.312;13.092;2022-09-29T02:14:34;100184.00;;;11.90
12918;BMP180;6526;54.312;13.092;2022-09-29T02:17:11;100183.00;;;11.90
12918;BMP180;6526;54.312;13.092;2022-09-29T02:19:44;100185.00;;;11.90
12918;BMP180;6526;54.312;13.092;2022-09-29T02:22:11;100181.00;;;11.80
12918;BMP180;6526;54.312;13.092;2022-09-29T02:24:37;100183.00;;;11.80
12918;BMP180;6526;54.312;13.092;2022-09-29T02:27:04;100195.00;;;11.90
12918;BMP180;6526;54.312;13.092;2022-09-29T02:29:32;100178.00;;;11.80
12918;BMP180;6526;54.312;13.092;2022-09-29T02:31:59;100189.00;;;11.70
12918;BMP180;6526;54.312;13.092;2022-09-29T02:34:29;100188.00;;;11.70
12918;BMP180;6526;54.312;13.092;2022-09-29T02:37:21;100161.00;;;11.70
12918;BMP180;6526;54.312;13.092;2022-09-29T02:50:52;100205.00;;;11.70
12918;BMP180;6526;54.312;13.092;2022-09-29T02:53:38;100195.00;;;11.70
12918;BMP180;6526;54.312;13.092;2022-09-29T02:56:48;100190.00;;;11.60
12918;BMP180;6526;54.312;13.092;2022-09-29T03:01:51;100188.00;;;11.50
12918;BMP180;6526;54.312;13.092;2022-09-29T03:04:18;100198.00;;;11.60
12918;BMP180;6526;54.312;13.092;2022-09-29T03:06:45;100183.00;;;11.70
12918;BMP180;6526;54.312;13.092;2022-09-29T03:09:11;100184.00;;;11.60
12918;BMP180;6526;54.312;13.092;2022-09-29T03:11:37;100183.00;;;11.50
12918;BMP180;6526;54.312;13.092;2022-09-29T03:14:03;100191.00;;;11.60
12918;BMP180;6526;54.312;13.092;2022-09-29T03:16:31;100194.00;;;11.60
12918;BMP180;6526;54.312;13.092;2022-09-29T03:18:58;100193.00;;;11.60
12918;BMP180;6526;54.312;13.092;2022-09-29T03:21:24;100193.00;;;11.60
12918;BMP180;6526;54.312;13.092;2022-09-29T03:23:50;100201.00;;;11.60
12918;BMP180;6526;54.312;13.092;2022-09-29T03:26:16;100196.00;;;11.60
12918;BMP180;6526;54.312;13.092;2022-09-29T03:28:42;100188.00;;;11.50
12918;BMP180;6526;54.312;13.092;2022-09-29T03:31:09;100198.00;;;11.50
12918;BMP180;6526;54.312;13.092;2022-09-29T03:33:36;100193.00;;;11.60
12918;BMP180;6526;54.312;13.092;2022-09-29T03:36:03;100189.00;;;11.60
12918;BMP180;6526;54.312;13.092;2022-09-29T03:38:31;100197.00;;;11.70
12918;BMP180;6526;54.312;13.092;2022-09-29T03:40:57;100206.00;;;11.70
12918;BMP180;6526;54.312;13.092;2022-09-29T03:43:23;100195.00;;;11.60
12918;BMP180;6526;54.312;13.092;2022-09-29T03:45:50;100188.00;;;11.60
12918;BMP180;6526;54.312;13.092;2022-09-29T03:48:17;100202.00;;;11.50
12918;BMP180;6526;54.312;13.092;2022-09-29T03:50:48;100196.00;;;11.50
12918;BMP180;6526;54.312;13.092;2022-09-29T03:53:14;100198.00;;;11.50
12918;BMP180;6526;54.312;13.092;2022-09-29T03:55:44;100210.00;;;11.40
12918;BMP180;6526;54.312;13.092;2022-09-29T03:58:10;100203.00;;;11.40
12918;BMP180;6526;54.312;13.092;2022-09-29T04:00:36;100203.00;;;11.40
12918;BMP180;6526;54.312;13.092;2022-09-29T04:03:02;100211.00;;;11.40
12918;BMP180;6526;54.312;13.092;2022-09-29T04:05:29;100215.00;;;11.40
12918;BMP180;6526;54.312;13.092;2022-09-29T04:07:55;100215.00;;;11.40
12918;BMP180;6526;54.312;13.092;2022-09-29T04:10:21;100219.00;;;11.40
12918;BMP180;6526;54.312;13.092;2022-09-29T04:12:47;100215.00;;;11.40
12918;BMP180;6526;54.312;13.092;2022-09-29T04:15:14;100221.00;;;11.40
12918;BMP180;6526;54.312;13.092;2022-09-29T04:17:40;100214.00;;;11.50
12918;BMP180;6526;54.312;13.092;2022-09-29T04:20:06;100212.00;;;11.50
12918;BMP180;6526;54.312;13.092;2022-09-29T04:22:32;100214.00;;;11.50
12918;BMP180;6526;54.312;13.092;2022-09-29T04:24:58;100214.00;;;11.40
12918;BMP180;6526;54.312;13.092;2022-09-29T04:27:24;100208.00;;;11.40
12918;BMP180;6526;54.312;13.092;2022-09-29T04:29:50;100221.00;;;11.40
12918;BMP180;6526;54.312;13.092;2022-09-29T04:32:16;100216.00;;;11.30
12918;BMP180;6526;54.312;13.092;2022-09-29T04:34:42;100216.00;;;11.40
12918;BMP180;6526;54.312;13.092;2022-09-29T04:37:09;100222.00;;;11.40
12918;BMP180;6526;54.312;13.092;2022-09-29T04:39:38;100209.00;;;11.40
12918;BMP180;6526;54.312;13.092;2022-09-29T04:42:04;100216.00;;;11.40
12918;BMP180;6526;54.312;13.092;2022-09-29T04:44:30;100220.00;;;11.50
12918;BMP180;6526;54.312;13.092;2022-09-29T04:46:56;100217.00;;;11.50
12918;BMP180;6526;54.312;13.092;2022-09-29T04:49:22;100223.00;;;11.50
12918;BMP180;6526;54.312;13.092;2022-09-29T04:51:48;100221.00;;;11.50
12918;BMP180;6526;54.312;13.092;2022-09-29T04:54:14;100225.00;;;11.40
12918;BMP180;6526;54.312;13.092;2022-09-29T04:56:40;100239.00;;;11.40
12918;BMP180;6526;54.312;13.092;2022-09-29T04:59:07;100233.00;;;11.40
12918;BMP180;6526;54.312;13.092;2022-09-29T05:01:34;100236.00;;;11.40
12918;BMP180;6526;54.312;13.092;2022-09-29T05:04:00;100233.00;;;11.40
12918;BMP180;6526;54.312;13.092;2022-09-29T05:06:26;100224.00;;;11.50
12918;BMP180;6526;54.312;13.092;2022-09-29T05:08:53;100234.00;;;11.40
12918;BMP180;6526;54.312;13.092;2022-09-29T05:11:19;100239.00;;;11.40
12918;BMP180;6526;54.312;13.092;2022-09-29T05:13:48;100244.00;;;11.40
12918;BMP180;6526;54.312;13.092;2022-09-29T05:16:15;100241.00;;;11.40
12918;BMP180;6526;54.312;13.092;2022-09-29T05:18:41;100240.00;;;11.40
12918;BMP180;6526;54.312;13.092;2022-09-29T05:21:08;100249.00;;;11.40
12918;BMP180;6526;54.312;13.092;2022-09-29T05:23:34;100252.00;;;11.30
12918;BMP180;6526;54.312;13.092;2022-09-29T05:26:05;100261.00;;;11.30
12918;BMP180;6526;54.312;13.092;2022-09-29T05:28:33;100251.00;;;11.40
12918;BMP180;6526;54.312;13.092;2022-09-29T05:31:05;100258.00;;;11.40
12918;BMP180;6526;54.312;13.092;2022-09-29T05:33:31;100262.00;;;11.40
12918;BMP180;6526;54.312;13.092;2022-09-29T05:35:58;100269.00;;;11.40
12918;BMP180;6526;54.312;13.092;2022-09-29T05:38:24;100257.00;;;11.40
12918;BMP180;6526;54.312;13.092;2022-09-29T05:40:51;100266.00;;;11.40
12918;BMP180;6526;54.312;13.092;2022-09-29T05:43:18;100268.00;;;11.40
12918;BMP180;6526;54.312;13.092;2022-09-29T05:45:44;100266.00;;;11.20
12918;BMP180;6526;54.312;13.092;2022-09-29T05:48:11;100270.00;;;11.30
12918;BMP180;6526;54.312;13.092;2022-09-29T05:50:37;100269.00;;;11.20
12918;BMP180;6526;54.312;13.092;2022-09-29T05:53:10;100265.00;;;11.10
12918;BMP180;6526;54.312;13.092;2022-09-29T05:55:37;100287.00;;;11.20
12918;BMP180;6526;54.312;13.092;2022-09-29T05:58:04;100280.00;;;11.20
12918;BMP180;6526;54.312;13.092;2022-09-29T06:00:31;100266.00;;;11.20
12918;BMP180;6526;54.312;13.092;2022-09-29T06:02:58;100270.00;;;11.40
12918;BMP180;6526;54.312;13.092;2022-09-29T06:05:25;100277.00;;;11.50
12918;BMP180;6526;54.312;13.092;2022-09-29T06:07:52;100275.00;;;11.60
12918;BMP180;6526;54.312;13.092;2022-09-29T06:10:18;100284.00;;;11.60
12918;BMP180;6526;54.312;13.092;2022-09-29T06:12:44;100275.00;;;11.70
12918;BMP180;6526;54.312;13.092;2022-09-29T06:15:11;100277.00;;;11.80
12918;BMP180;6526;54.312;13.092;2022-09-29T06:17:37;100260.00;;;12.00
12918;BMP180;6526;54.312;13.092;2022-09-29T06:20:05;100281.00;;;12.40
12918;BMP180;6526;54.312;13.092;2022-09-29T06:22:32;100275.00;;;12.50
12918;BMP180;6526;54.312;13.092;2022-09-29T06:24:58;100267.00;;;12.80
12918;BMP180;6526;54.312;13.092;2022-09-29T06:27:24;100267.00;;;13.30
12918;BMP180;6526;54.312;13.092;2022-09-29T06:29:50;100273.00;;;13.60
12918;BMP180;6526;54.312;13.092;2022-09-29T06:32:16;100283.00;;;14.00
12918;BMP180;6526;54.312;13.092;2022-09-29T06:34:43;100288.00;;;14.10
12918;BMP180;6526;54.312;13.092;2022-09-29T06:37:27;100289.00;;;14.30
12918;BMP180;6526;54.312;13.092;2022-09-29T06:40:03;100288.00;;;14.30
12918;BMP180;6526;54.312;13.092;2022-09-29T06:42:29;100292.00;;;14.30
12918;BMP180;6526;54.312;13.092;2022-09-29T06:44:55;100303.00;;;14.60
12918;BMP180;6526;54.312;13.092;2022-09-29T06:47:21;100288.00;;;14.70
12918;BMP180;6526;54.312;13.092;2022-09-29T06:49:48;100299.00;;;14.90
12918;BMP180;6526;54.312;13.092;2022-09-29T06:52:15;100294.00;;;15.10
12918;BMP180;6526;54.312;13.092;2022-09-29T06:54:41;100289.00;;;15.10
12918;BMP180;6526;54.312;13.092;2022-09-29T06:57:07;100300.00;;;15.10
12918;BMP180;6526;54.312;13.092;2022-09-29T06:59:34;100310.00;;;15.20
12918;BMP180;6526;54.312;13.092;2022-09-29T07:02:00;100311.00;;;15.40
12918;BMP180;6526;54.312;13.092;2022-09-29T07:04:26;100304.00;;;15.60
12918;BMP180;6526;54.312;13.092;2022-09-29T07:06:52;100315.00;;;15.50
12918;BMP180;6526;54.312;13.092;2022-09-29T07:09:19;100324.00;;;15.50
12918;BMP180;6526;54.312;13.092;2022-09-29T07:11:48;100315.00;;;15.60
12918;BMP180;6526;54.312;13.092;2022-09-29T07:14:15;100314.00;;;15.60
12918;BMP180;6526;54.312;13.092;2022-09-29T07:16:41;100325.00;;;15.60
12918;BMP180;6526;54.312;13.092;2022-09-29T07:19:08;100322.00;;;15.50
12918;BMP180;6526;54.312;13.092;2022-09-29T07:21:35;100325.00;;;15.40
12918;BMP180;6526;54.312;13.092;2022-09-29T07:24:01;100319.00;;;15.40
12918;BMP180;6526;54.312;13.092;2022-09-29T07:26:27;100332.00;;;15.50
12918;BMP180;6526;54.312;13.092;2022-09-29T07:28:54;100334.00;;;15.60
12918;BMP180;6526;54.312;13.092;2022-09-29T07:31:20;100326.00;;;15.50
12918;BMP180;6526;54.312;13.092;2022-09-29T07:33:48;100320.00;;;15.50
12918;BMP180;6526;54.312;13.092;2022-09-29T07:36:16;100334.00;;;15.50
12918;BMP180;6526;54.312;13.092;2022-09-29T07:38:46;100333.00;;;15.60
12918;BMP180;6526;54.312;13.092;2022-09-29T07:41:12;100339.00;;;15.70
12918;BMP180;6526;54.312;13.092;2022-09-29T07:43:39;100340.00;;;15.90
12918;BMP180;6526;54.312;13.092;2022-09-29T07:46:06;100335.00;;;16.00
12918;BMP180;6526;54.312;13.092;2022-09-29T07:48:33;100336.00;;;16.00
12918;BMP180;6526;54.312;13.092;2022-09-29T07:51:11;100346.00;;;16.10
12918;BMP180;6526;54.312;13.092;2022-09-29T07:53:37;100345.00;;;16.20
12918;BMP180;6526;54.312;13.092;2022-09-29T07:56:05;100349.00;;;16.40
12918;BMP180;6526;54.312;13.092;2022-09-29T07:58:32;100334.00;;;16.40
12918;BMP180;6526;54.312;13.092;2022-09-29T08:00:59;100345.00;;;16.40
12918;BMP180;6526;54.312;13.092;2022-09-29T08:03:26;100352.00;;;16.50
12918;BMP180;6526;54.312;13.092;2022-09-29T08:05:53;100352.00;;;16.40
12918;BMP180;6526;54.312;13.092;2022-09-29T08:08:19;100358.00;;;16.50
12918;BMP180;6526;54.312;13.092;2022-09-29T08:10:45;100359.00;;;16.60
12918;BMP180;6526;54.312;13.092;2022-09-29T08:13:11;100361.00;;;16.70
12918;BMP180;6526;54.312;13.092;2022-09-29T08:15:37;100366.00;;;16.70
12918;BMP180;6526;54.312;13.092;2022-09-29T08:18:03;100370.00;;;16.70
12918;BMP180;6526;54.312;13.092;2022-09-29T08:20:29;100374.00;;;16.90
12918;BMP180;6526;54.312;13.092;2022-09-29T08:22:56;100368.00;;;16.80
12918;BMP180;6526;54.312;13.092;2022-09-29T08:25:23;100371.00;;;16.80
12918;BMP180;6526;54.312;13.092;2022-09-29T08:27:51;100385.00;;;16.90
12918;BMP180;6526;54.312;13.092;2022-09-29T08:30:17;100374.00;;;17.10
12918;BMP180;6526;54.312;13.092;2022-09-29T08:32:53;100383.00;;;17.30
12918;BMP180;6526;54.312;13.092;2022-09-29T08:35:19;100382.00;;;17.40
12918;BMP180;6526;54.312;13.092;2022-09-29T08:37:45;100379.00;;;17.30
12918;BMP180;6526;54.312;13.092;2022-09-29T08:40:12;100387.00;;;17.60
12918;BMP180;6526;54.312;13.092;2022-09-29T08:43:07;100387.00;;;17.80
12918;BMP180;6526;54.312;13.092;2022-09-29T08:45:40;100397.00;;;17.80
12918;BMP180;6526;54.312;13.092;2022-09-29T08:48:22;100403.00;;;17.80
12918;BMP180;6526;54.312;13.092;2022-09-29T08:51:01;100393.00;;;18.10
12918;BMP180;6526;54.312;13.092;2022-09-29T08:53:34;100394.00;;;18.30
12918;BMP180;6526;54.312;13.092;2022-09-29T08:56:14;100398.00;;;18.50
12918;BMP180;6526;54.312;13.092;2022-09-29T08:58:40;100405.00;;;18.80
12918;BMP180;6526;54.312;13.092;2022-09-29T09:07:20;100417.00;;;18.50
12918;BMP180;6526;54.312;13.092;2022-09-29T09:10:14;100413.00;;;18.50
12918;BMP180;6526;54.312;13.092;2022-09-29T09:15:53;100423.00;;;18.70
12918;BMP180;6526;54.312;13.092;2022-09-29T09:18:45;100407.00;;;18.60
12918;BMP180;6526;54.312;13.092;2022-09-29T09:21:42;100413.00;;;18.80
12918;BMP180;6526;54.312;13.092;2022-09-29T09:24:17;100425.00;;;19.00
12918;BMP180;6526;54.312;13.092;2022-09-29T09:26:46;100419.00;;;19.00
12918;BMP180;6526;54.312;13.092;2022-09-29T09:29:36;100423.00;;;19.00
12918;BMP180;6526;54.312;13.092;2022-09-29T09:32:08;100427.00;;;19.00
12918;BMP180;6526;54.312;13.092;2022-09-29T09:34:42;100426.00;;;19.20
12918;BMP180;6526;54.312;13.092;2022-09-29T09:37:17;100427.00;;;19.20
12918;BMP180;6526;54.312;13.092;2022-09-29T09:40:18;100425.00;;;19.40
12918;BMP180;6526;54.312;13.092;2022-09-29T09:45:44;100431.00;;;19.60
12918;BMP180;6526;54.312;13.092;2022-09-29T09:48:28;100431.00;;;19.80
12918;BMP180;6526;54.312;13.092;2022-09-29T09:50:55;100440.00;;;19.40
12918;BMP180;6526;54.312;13.092;2022-09-29T09:53:40;100443.00;;;19.30
12918;BMP180;6526;54.312;13.092;2022-09-29T09:59:22;100435.00;;;19.10
12918;BMP180;6526;54.312;13.092;2022-09-29T10:01:51;100444.00;;;19.30
12918;BMP180;6526;54.312;13.092;2022-09-29T10:04:17;100448.00;;;19.40
12918;BMP180;6526;54.312;13.092;2022-09-29T10:06:43;100450.00;;;19.40
12918;BMP180;6526;54.312;13.092;2022-09-29T10:09:13;100452.00;;;19.20
12918;BMP180;6526;54.312;13.092;2022-09-29T10:11:41;100455.00;;;19.00
12918;BMP180;6526;54.312;13.092;2022-09-29T10:14:25;100457.00;;;18.90
12918;BMP180;6526;54.312;13.092;2022-09-29T10:17:04;100455.00;;;19.10
12918;BMP180;6526;54.312;13.092;2022-09-29T10:19:51;100453.00;;;19.10
12918;BMP180;6526;54.312;13.092;2022-09-29T10:22:19;100455.00;;;19.10
12918;BMP180;6526;54.312;13.092;2022-09-29T10:24:45;100453.00;;;19.10
12918;BMP180;6526;54.312;13.092;2022-09-29T10:27:17;100459.00;;;19.10
12918;BMP180;6526;54.312;13.092;2022-09-29T10:29:47;100457.00;;;19.00
12918;BMP180;6526;54.312;13.092;2022-09-29T10:32:30;100447.00;;;19.10
12918;BMP180;6526;54.312;13.092;2022-09-29T10:35:26;100470.00;;;19.20
12918;BMP180;6526;54.312;13.092;2022-09-29T10:38:05;100475.00;;;19.40
12918;BMP180;6526;54.312;13.092;2022-09-29T10:40:34;100473.00;;;19.30
12918;BMP180;6526;54.312;13.092;2022-09-29T10:43:25;100470.00;;;19.20
12918;BMP180;6526;54.312;13.092;2022-09-29T10:45:52;100466.00;;;19.30
12918;BMP180;6526;54.312;13.092;2022-09-29T10:48:24;100467.00;;;19.30
12918;BMP180;6526;54.312;13.092;2022-09-29T10:50:54;100476.00;;;19.30
12918;BMP180;6526;54.312;13.092;2022-09-29T10:56:18;100467.00;;;18.90
12918;BMP180;6526;54.312;13.092;2022-09-29T10:58:58;100479.00;;;18.90
12918;BMP180;6526;54.312;13.092;2022-09-29T11:01:26;100487.00;;;19.00
12918;BMP180;6526;54.312;13.092;2022-09-29T11:03:58;100495.00;;;19.00
12918;BMP180;6526;54.312;13.092;2022-09-29T11:06:33;100503.00;;;19.00
12918;BMP180;6526;54.312;13.092;2022-09-29T11:11:52;100495.00;;;19.30
12918;BMP180;6526;54.312;13.092;2022-09-29T11:19:48;100509.00;;;19.80
12918;BMP180;6526;54.312;13.092;2022-09-29T11:33:47;100520.00;;;19.80
12918;BMP180;6526;54.312;13.092;2022-09-29T11:38:55;100526.00;;;19.80
12918;BMP180;6526;54.312;13.092;2022-09-29T11:41:46;100526.00;;;19.70
12918;BMP180;6526;54.312;13.092;2022-09-29T11:44:31;100534.00;;;20.00
12918;BMP180;6526;54.312;13.092;2022-09-29T11:47:19;100540.00;;;19.80
12918;BMP180;6526;54.312;13.092;2022-09-29T11:52:53;100544.00;;;19.30
12918;BMP180;6526;54.312;13.092;2022-09-29T12:04:08;100554.00;;;18.70
12918;BMP180;6526;54.312;13.092;2022-09-29T12:06:53;100551.00;;;18.90
12918;BMP180;6526;54.312;13.092;2022-09-29T12:12:17;100550.00;;;19.20
12918;BMP180;6526;54.312;13.092;2022-09-29T12:17:33;100551.00;;;19.50
12918;BMP180;6526;54.312;13.092;2022-09-29T12:20:21;100558.00;;;19.60
12918;BMP180;6526;54.312;13.092;2022-09-29T12:22:50;100544.00;;;19.80
12918;BMP180;6526;54.312;13.092;2022-09-29T12:25:19;100552.00;;;19.80
12918;BMP180;6526;54.312;13.092;2022-09-29T12:27:47;100543.00;;;19.80
12918;BMP180;6526;54.312;13.092;2022-09-29T12:30:25;100551.00;;;19.60
12918;BMP180;6526;54.312;13.092;2022-09-29T12:33:28;100566.00;;;19.40
12918;BMP180;6526;54.312;13.092;2022-09-29T12:36:14;100566.00;;;19.50
12918;BMP180;6526;54.312;13.092;2022-09-29T12:39:30;100567.00;;;19.40
12918;BMP180;6526;54.312;13.092;2022-09-29T12:42:09;100566.00;;;19.50
12918;BMP180;6526;54.312;13.092;2022-09-29T12:44:46;100564.00;;;19.70
12918;BMP180;6526;54.312;13.092;2022-09-29T12:50:10;100563.00;;;20.20
12918;BMP180;6526;54.312;13.092;2022-09-29T12:52:51;100572.00;;;20.10
12918;BMP180;6526;54.312;13.092;2022-09-29T12:58:24;100579.00;;;19.50
12918;BMP180;6526;54.312;13.092;2022-09-29T13:01:02;100582.00;;;19.30
12918;BMP180;6526;54.312;13.092;2022-09-29T13:03:36;100593.00;;;19.50
12918;BMP180;6526;54.312;13.092;2022-09-29T13:08:55;100589.00;;;19.60
12918;BMP180;6526;54.312;13.092;2022-09-29T13:11:38;100582.00;;;19.70
12918;BMP180;6526;54.312;13.092;2022-09-29T13:14:24;100578.00;;;19.70
12918;BMP180;6526;54.312;13.092;2022-09-29T13:17:03;100586.00;;;19.70
12918;BMP180;6526;54.312;13.092;2022-09-29T13:20:03;100578.00;;;19.60
12918;BMP180;6526;54.312;13.092;2022-09-29T13:25:38;100581.00;;;19.50
12918;BMP180;6526;54.312;13.092;2022-09-29T13:28:23;100582.00;;;19.50
12918;BMP180;6526;54.312;13.092;2022-09-29T13:30:50;100593.00;;;19.60
12918;BMP180;6526;54.312;13.092;2022-09-29T13:33:21;100588.00;;;19.70
12918;BMP180;6526;54.312;13.092;2022-09-29T13:35:49;100587.00;;;19.70
12918;BMP180;6526;54.312;13.092;2022-09-29T13:38:22;100595.00;;;19.70
12918;BMP180;6526;54.312;13.092;2022-09-29T13:41:09;100594.00;;;19.40
12918;BMP180;6526;54.312;13.092;2022-09-29T13:51:53;100597.00;;;19.50
12918;BMP180;6526;54.312;13.092;2022-09-29T13:54:36;100606.00;;;19.30
12918;BMP180;6526;54.312;13.092;2022-09-29T14:02:27;100606.00;;;19.00
12918;BMP180;6526;54.312;13.092;2022-09-29T14:04:55;100606.00;;;18.70
12918;BMP180;6526;54.312;13.092;2022-09-29T14:07:38;100618.00;;;18.80
12918;BMP180;6526;54.312;13.092;2022-09-29T14:10:17;100610.00;;;18.70
12918;BMP180;6526;54.312;13.092;2022-09-29T14:12:46;100610.00;;;18.70
12918;BMP180;6526;54.312;13.092;2022-09-29T14:15:16;100619.00;;;18.70
12918;BMP180;6526;54.312;13.092;2022-09-29T14:17:48;100614.00;;;18.60
12918;BMP180;6526;54.312;13.092;2022-09-29T14:20:30;100629.00;;;18.70
12918;BMP180;6526;54.312;13.092;2022-09-29T14:23:05;100630.00;;;18.70
12918;BMP180;6526;54.312;13.092;2022-09-29T14:28:13;100635.00;;;18.50
12918;BMP180;6526;54.312;13.092;2022-09-29T14:30:48;100628.00;;;18.40
12918;BMP180;6526;54.312;13.092;2022-09-29T14:33:32;100644.00;;;18.10
12918;BMP180;6526;54.312;13.092;2022-09-29T14:36:05;100646.00;;;18.30
12918;BMP180;6526;54.312;13.092;2022-09-29T14:38:54;100641.00;;;18.30
12918;BMP180;6526;54.312;13.092;2022-09-29T14:41:29;100644.00;;;18.20
12918;BMP180;6526;54.312;13.092;2022-09-29T14:44:27;100649.00;;;18.20
12918;BMP180;6526;54.312;13.092;2022-09-29T14:47:11;100654.00;;;18.10
12918;BMP180;6526;54.312;13.092;2022-09-29T14:50:13;100657.00;;;18.00
12918;BMP180;6526;54.312;13.092;2022-09-29T15:01:29;100671.00;;;17.80
12918;BMP180;6526;54.312;13.092;2022-09-29T15:04:10;100676.00;;;17.80
12918;BMP180;6526;54.312;13.092;2022-09-29T15:06:45;100678.00;;;17.90
12918;BMP180;6526;54.312;13.092;2022-09-29T15:09:20;100691.00;;;17.90
12918;BMP180;6526;54.312;13.092;2022-09-29T15:11:52;100673.00;;;17.80
12918;BMP180;6526;54.312;13.092;2022-09-29T15:14:44;100685.00;;;17.80
12918;BMP180;6526;54.312;13.092;2022-09-29T15:17:30;100686.00;;;17.80
12918;BMP180;6526;54.312;13.092;2022-09-29T15:20:21;100689.00;;;17.70
12918;BMP180;6526;54.312;13.092;2022-09-29T15:23:27;100698.00;;;17.60
12918;BMP180;6526;54.312;13.092;2022-09-29T15:25:57;100691.00;;;17.70
12918;BMP180;6526;54.312;13.092;2022-09-29T15:28:33;100700.00;;;17.50
12918;BMP180;6526;54.312;13.092;2022-09-29T15:31:07;100693.00;;;17.40
12918;BMP180;6526;54.312;13.092;2022-09-29T15:33:38;100702.00;;;17.40
12918;BMP180;6526;54.312;13.092;2022-09-29T15:36:16;100698.00;;;17.30
12918;BMP180;6526;54.312;13.092;2022-09-29T15:38:43;100707.00;;;17.40
12918;BMP180;6526;54.312;13.092;2022-09-29T15:41:17;100711.00;;;17.40
12918;BMP180;6526;54.312;13.092;2022-09-29T15:43:57;100700.00;;;17.50
12918;BMP180;6526;54.312;13.092;2022-09-29T15:49:21;100721.00;;;17.40
12918;BMP180;6526;54.312;13.092;2022-09-29T15:52:05;100718.00;;;17.30
12918;BMP180;6526;54.312;13.092;2022-09-29T15:54:37;100733.00;;;17.30
12918;BMP180;6526;54.312;13.092;2022-09-29T15:57:05;100733.00;;;17.40
12918;BMP180;6526;54.312;13.092;2022-09-29T15:59:52;100732.00;;;17.30
12918;BMP180;6526;54.312;13.092;2022-09-29T16:02:37;100733.00;;;17.30
12918;BMP180;6526;54.312;13.092;2022-09-29T16:05:10;100740.00;;;17.20
12918;BMP180;6526;54.312;13.092;2022-09-29T16:07:46;100751.00;;;17.10
12918;BMP180;6526;54.312;13.092;2022-09-29T16:10:18;100746.00;;;17.10
12918;BMP180;6526;54.312;13.092;2022-09-29T16:12:55;100744.00;;;17.10
12918;BMP180;6526;54.312;13.092;2022-09-29T16:15:34;100757.00;;;16.90
12918;BMP180;6526;54.312;13.092;2022-09-29T16:18:06;100757.00;;;17.00
12918;BMP180;6526;54.312;13.092;2022-09-29T16:20:34;100761.00;;;16.90
12918;BMP180;6526;54.312;13.092;2022-09-29T16:23:13;100761.00;;;16.90
12918;BMP180;6526;54.312;13.092;2022-09-29T16:25:40;100771.00;;;17.00